createdAt,value
2018-04-25T00:00:05.577Z,100417.70
2018-04-25T00:01:09.839Z,100415.98
2018-04-25T00:02:14.105Z,100410.90
2018-04-25T00:03:18.333Z,100409.88
2018-04-25T00:04:22.555Z,100409.26
2018-04-25T00:05:26.811Z,100409.29
2018-04-25T00:06:31.106Z,100404.94
2018-04-25T00:07:36.119Z,100397.09
2018-04-25T00:08:40.347Z,100403.67
2018-04-25T00:09:44.559Z,100403.55
2018-04-25T00:10:49.654Z,100405.33
2018-04-25T00:11:54.151Z,100396.37
2018-04-25T00:12:58.385Z,100396.27
2018-04-25T00:14:02.765Z,100392.80
2018-04-25T00:15:07.019Z,100386.75
2018-04-25T00:16:11.250Z,100392.34
2018-04-25T00:17:15.511Z,100395.84
2018-04-25T00:18:19.732Z,100388.54
2018-04-25T00:19:24.006Z,100389.66
2018-04-25T00:20:29.459Z,100389.27
2018-04-25T00:21:33.762Z,100392.18
2018-04-25T00:22:37.989Z,100390.56
2018-04-25T00:23:42.277Z,100385.86
2018-04-25T00:24:47.240Z,100384.51
2018-04-25T00:25:51.645Z,100384.61
2018-04-25T00:26:55.854Z,100383.38
2018-04-25T00:28:00.175Z,100382.00
2018-04-25T00:29:04.375Z,100378.46
2018-04-25T00:30:08.582Z,100383.32
2018-04-25T00:31:12.865Z,100371.66
2018-04-25T00:32:17.933Z,100374.13
2018-04-25T00:33:22.334Z,100368.31
2018-04-25T00:34:26.557Z,100368.55
2018-04-25T00:35:30.788Z,100373.53
2018-04-25T00:36:35.071Z,100367.45
2018-04-25T00:37:40.095Z,100363.52
2018-04-25T00:38:44.309Z,100366.47
2018-04-25T00:39:49.278Z,100365.34
2018-04-25T00:40:53.543Z,100365.38
2018-04-25T00:41:57.877Z,100366.66
2018-04-25T00:43:02.530Z,100358.80
2018-04-25T00:44:06.786Z,100358.30
2018-04-25T00:45:11.769Z,100358.63
2018-04-25T00:46:15.994Z,100348.25
2018-04-25T00:47:20.237Z,100352.16
2018-04-25T00:48:24.865Z,100349.34
2018-04-25T00:49:29.844Z,100339.06
2018-04-25T00:50:34.089Z,100342.30
2018-04-25T00:51:39.092Z,100340.16
2018-04-25T00:52:43.317Z,100342.73
2018-04-25T00:53:47.564Z,100347.06
2018-04-25T00:54:51.870Z,100338.34
2018-04-25T00:55:56.302Z,100339.63
2018-04-25T00:57:00.560Z,100330.17
2018-04-25T00:58:04.922Z,100333.08
2018-04-25T00:59:09.150Z,100322.77
2018-04-25T01:00:14.663Z,100329.81
2018-04-25T01:01:18.896Z,100327.16
2018-04-25T01:02:23.297Z,100321.55
2018-04-25T01:03:27.520Z,100318.41
2018-04-25T01:04:31.752Z,100320.52
2018-04-25T01:05:36.363Z,100318.04
2018-04-25T01:06:40.630Z,100318.04
2018-04-25T01:07:45.652Z,100306.58
2018-04-25T01:08:50.641Z,100309.45
2018-04-25T01:09:54.869Z,100312.55
2018-04-25T01:10:59.153Z,100313.25
2018-04-25T01:12:03.472Z,100298.73
2018-04-25T01:13:08.474Z,100302.73
2018-04-25T01:14:12.697Z,100302.41
2018-04-25T01:15:16.923Z,100302.02
2018-04-25T01:16:21.178Z,100301.98
2018-04-25T01:17:25.395Z,100296.86
2018-04-25T01:18:30.430Z,100294.67
2018-04-25T01:19:35.467Z,100283.17
2018-04-25T01:20:40.449Z,100280.20
2018-04-25T01:21:54.599Z,100288.80
2018-04-25T01:22:59.003Z,100278.09
2018-04-25T01:24:03.271Z,100272.17
2018-04-25T01:26:56.202Z,100275.61
2018-04-25T01:28:09.076Z,100279.18
2018-04-25T01:29:13.326Z,100287.24
2018-04-25T01:30:17.703Z,100283.88
2018-04-25T01:33:05.843Z,100283.74
2018-04-25T01:36:08.429Z,100289.09
2018-04-25T01:37:23.520Z,100282.52
2018-04-25T01:38:30.082Z,100277.47
2018-04-25T01:39:59.057Z,100281.39
2018-04-25T01:41:14.041Z,100277.99
2018-04-25T01:42:25.894Z,100278.36
2018-04-25T01:43:30.908Z,100283.71
2018-04-25T01:44:35.172Z,100283.64
2018-04-25T01:47:19.266Z,100281.83
2018-04-25T01:48:33.098Z,100278.48
2018-04-25T01:49:41.968Z,100282.95
2018-04-25T01:50:47.114Z,100281.13
2018-04-25T01:52:09.121Z,100278.63
2018-04-25T01:53:32.105Z,100277.07
2018-04-25T01:54:54.139Z,100274.72
2018-04-25T01:56:16.251Z,100270.66
2018-04-25T01:57:39.082Z,100268.52
2018-04-25T01:59:02.017Z,100267.33
2018-04-25T02:00:24.269Z,100260.95
2018-04-25T02:01:28.614Z,100264.48
2018-04-25T02:02:32.030Z,100257.94
2018-04-25T02:03:47.832Z,100258.86
2018-04-25T02:04:52.209Z,100256.84
2018-04-25T02:05:56.474Z,100258.07
2018-04-25T02:07:00.753Z,100257.44
2018-04-25T02:08:05.043Z,100259.23
2018-04-25T02:09:09.675Z,100258.37
2018-04-25T02:10:13.886Z,100256.84
2018-04-25T02:11:18.094Z,100250.08
2018-04-25T02:12:22.357Z,100254.17
2018-04-25T02:13:26.545Z,100249.22
2018-04-25T02:14:32.334Z,100244.13
2018-04-25T02:15:37.314Z,100249.42
2018-04-25T02:16:41.515Z,100242.98
2018-04-25T02:17:45.717Z,100236.14
2018-04-25T02:18:49.937Z,100234.39
2018-04-25T02:19:54.547Z,100232.73
2018-04-25T02:20:58.744Z,100235.67
2018-04-25T02:22:03.125Z,100239.91
2018-04-25T02:23:07.512Z,100231.67
2018-04-25T02:24:11.717Z,100238.09
2018-04-25T02:25:16.096Z,100245.36
2018-04-25T02:26:20.424Z,100236.73
2018-04-25T02:27:24.690Z,100240.06
2018-04-25T02:28:29.737Z,100239.28
2018-04-25T02:29:34.002Z,100235.57
2018-04-25T02:30:38.231Z,100232.83
2018-04-25T02:31:42.436Z,100241.72
2018-04-25T02:32:46.646Z,100234.34
2018-04-25T02:33:50.850Z,100234.88
2018-04-25T02:34:55.202Z,100230.87
2018-04-25T02:36:00.351Z,100231.38
2018-04-25T02:37:04.774Z,100229.33
2018-04-25T02:38:09.007Z,100230.72
2018-04-25T02:39:13.201Z,100216.55
2018-04-25T02:40:17.406Z,100219.62
2018-04-25T02:41:21.605Z,100220.81
2018-04-25T02:42:26.742Z,100218.09
2018-04-25T02:43:31.263Z,100214.53
2018-04-25T02:44:35.587Z,100212.81
2018-04-25T02:45:39.815Z,100212.31
2018-04-25T02:46:44.022Z,100201.58
2018-04-25T02:47:48.263Z,100212.31
2018-04-25T02:48:52.614Z,100208.16
2018-04-25T02:49:57.615Z,100211.06
2018-04-25T02:51:01.868Z,100210.34
2018-04-25T02:52:06.087Z,100208.12
2018-04-25T02:53:10.283Z,100207.16
2018-04-25T02:54:14.563Z,100208.48
2018-04-25T02:55:18.765Z,100203.00
2018-04-25T02:56:23.002Z,100205.91
2018-04-25T02:57:27.980Z,100205.88
2018-04-25T02:58:32.330Z,100206.63
2018-04-25T02:59:36.578Z,100205.52
2018-04-25T03:00:40.786Z,100203.00
2018-04-25T03:01:45.113Z,100198.22
2018-04-25T03:02:49.326Z,100199.37
2018-04-25T03:03:53.826Z,100202.55
2018-04-25T03:04:58.074Z,100200.86
2018-04-25T03:06:02.281Z,100200.13
2018-04-25T03:07:06.481Z,100197.48
2018-04-25T03:08:10.677Z,100197.48
2018-04-25T03:09:14.974Z,100198.52
2018-04-25T03:10:19.196Z,100193.81
2018-04-25T03:11:23.405Z,100197.08
2018-04-25T03:12:27.839Z,100196.79
2018-04-25T03:13:32.050Z,100191.07
2018-04-25T03:14:36.340Z,100193.32
2018-04-25T03:15:40.541Z,100187.77
2018-04-25T03:16:45.549Z,100188.46
2018-04-25T03:17:49.833Z,100186.17
2018-04-25T03:18:54.197Z,100184.23
2018-04-25T03:19:59.170Z,100184.30
2018-04-25T03:21:03.385Z,100178.86
2018-04-25T03:22:07.651Z,100180.94
2018-04-25T03:23:11.985Z,100181.69
2018-04-25T03:24:16.202Z,100184.20
2018-04-25T03:25:20.400Z,100184.70
2018-04-25T03:26:24.616Z,100178.98
2018-04-25T03:27:28.875Z,100178.52
2018-04-25T03:28:33.566Z,100185.78
2018-04-25T03:29:37.773Z,100181.35
2018-04-25T03:30:42.173Z,100182.44
2018-04-25T03:31:46.378Z,100181.58
2018-04-25T03:32:50.639Z,100184.19
2018-04-25T03:33:55.313Z,100177.67
2018-04-25T03:34:59.504Z,100180.87
2018-04-25T03:36:03.729Z,100177.67
2018-04-25T03:37:07.946Z,100178.17
2018-04-25T03:38:12.258Z,100177.48
2018-04-25T03:39:16.666Z,100178.14
2018-04-25T03:40:20.993Z,100170.38
2018-04-25T03:41:25.193Z,100176.95
2018-04-25T03:42:29.392Z,100174.30
2018-04-25T03:43:34.357Z,100180.39
2018-04-25T03:44:38.653Z,100175.84
2018-04-25T03:45:42.898Z,100184.22
2018-04-25T03:46:47.119Z,100175.56
2018-04-25T03:47:52.906Z,100182.20
2018-04-25T03:48:57.921Z,100174.70
2018-04-25T03:50:02.911Z,100172.95
2018-04-25T03:51:07.146Z,100172.59
2018-04-25T03:52:11.363Z,100175.39
2018-04-25T03:53:15.584Z,100171.23
2018-04-25T03:54:20.737Z,100169.41
2018-04-25T03:55:25.043Z,100168.38
2018-04-25T03:56:30.018Z,100172.78
2018-04-25T03:57:34.709Z,100167.52
2018-04-25T03:58:38.916Z,100172.38
2018-04-25T03:59:43.208Z,100163.93
2018-04-25T04:00:48.179Z,100167.62
2018-04-25T04:01:52.380Z,100170.20
2018-04-25T04:02:57.180Z,100169.91
2018-04-25T04:04:02.153Z,100163.10
2018-04-25T04:05:06.379Z,100156.55
2018-04-25T04:06:10.574Z,100160.71
2018-04-25T04:07:14.780Z,100156.20
2018-04-25T04:08:19.032Z,100153.22
2018-04-25T04:09:24.012Z,100152.57
2018-04-25T04:10:28.199Z,100146.92
2018-04-25T04:11:32.521Z,100149.46
2018-04-25T04:12:36.725Z,100152.21
2018-04-25T04:13:41.069Z,100151.59
2018-04-25T04:14:46.200Z,100154.17
2018-04-25T04:15:50.398Z,100149.02
2018-04-25T04:16:54.610Z,100154.91
2018-04-25T04:17:59.011Z,100153.28
2018-04-25T04:19:03.424Z,100154.59
2018-04-25T04:20:07.726Z,100148.63
2018-04-25T04:21:12.056Z,100150.61
2018-04-25T04:22:16.265Z,100157.48
2018-04-25T04:23:20.475Z,100159.13
2018-04-25T04:24:24.892Z,100166.86
2018-04-25T04:25:29.207Z,100169.80
2018-04-25T04:26:33.609Z,100166.37
2018-04-25T04:27:37.920Z,100176.75
2018-04-25T04:28:42.246Z,100176.36
2018-04-25T04:29:46.470Z,100176.95
2018-04-25T04:30:50.667Z,100185.87
2018-04-25T04:31:54.891Z,100197.86
2018-04-25T04:32:59.163Z,100200.67
2018-04-25T04:34:04.228Z,100200.06
2018-04-25T04:35:08.439Z,100203.31
2018-04-25T04:36:12.726Z,100192.37
2018-04-25T04:37:17.682Z,100198.23
2018-04-25T04:38:22.404Z,100206.98
2018-04-25T04:39:26.596Z,100206.32
2018-04-25T04:40:30.808Z,100209.87
2018-04-25T04:41:35.000Z,100205.68
2018-04-25T04:42:40.058Z,100209.56
2018-04-25T04:43:44.772Z,100208.55
2018-04-25T04:44:48.959Z,100213.83
2018-04-25T04:45:53.920Z,100213.97
2018-04-25T04:46:58.130Z,100208.73
2018-04-25T04:48:03.262Z,100216.94
2018-04-25T04:49:07.484Z,100219.08
2018-04-25T04:50:11.702Z,100213.87
2018-04-25T04:51:15.921Z,100216.53
2018-04-25T04:52:20.125Z,100217.03
2018-04-25T04:53:24.337Z,100218.06
2018-04-25T04:54:28.997Z,100219.03
2018-04-25T04:55:33.240Z,100214.90
2018-04-25T04:56:37.540Z,100218.42
2018-04-25T04:57:42.504Z,100220.07
2018-04-25T04:58:46.801Z,100224.02
2018-04-25T04:59:51.216Z,100218.08
2018-04-25T05:00:55.474Z,100225.30
2018-04-25T05:01:59.660Z,100225.12
2018-04-25T05:03:03.862Z,100219.08
2018-04-25T05:04:08.153Z,100226.81
2018-04-25T05:05:12.359Z,100226.84
2018-04-25T05:06:16.841Z,100230.22
2018-04-25T05:07:21.187Z,100230.05
2018-04-25T05:08:26.256Z,100225.39
2018-04-25T05:09:31.371Z,100233.02
2018-04-25T05:10:35.681Z,100227.45
2018-04-25T05:11:40.095Z,100227.27
2018-04-25T05:12:44.401Z,100226.56
2018-04-25T05:13:48.704Z,100235.84
2018-04-25T05:14:52.906Z,100231.47
2018-04-25T05:15:58.061Z,100235.67
2018-04-25T05:17:02.788Z,100234.33
2018-04-25T05:18:07.120Z,100240.27
2018-04-25T05:19:11.326Z,100237.78
2018-04-25T05:20:15.527Z,100234.88
2018-04-25T05:21:19.735Z,100233.08
2018-04-25T05:22:24.045Z,100236.16
2018-04-25T05:23:28.247Z,100236.67
2018-04-25T05:24:32.483Z,100243.81
2018-04-25T05:25:36.700Z,100242.05
2018-04-25T05:26:40.994Z,100240.30
2018-04-25T05:27:45.200Z,100235.77
2018-04-25T05:28:49.403Z,100243.05
2018-04-25T05:29:53.836Z,100244.58
2018-04-25T05:30:58.041Z,100242.27
2018-04-25T05:32:02.337Z,100249.92
2018-04-25T05:33:06.664Z,100248.16
2018-04-25T05:34:10.953Z,100244.75
2018-04-25T05:35:16.108Z,100244.81
2018-04-25T05:36:20.321Z,100239.61
2018-04-25T05:37:24.508Z,100244.55
2018-04-25T05:38:29.533Z,100249.72
2018-04-25T05:39:34.498Z,100244.92
2018-04-25T05:40:38.904Z,100249.23
2018-04-25T05:41:43.095Z,100250.86
2018-04-25T05:42:48.120Z,100250.92
2018-04-25T05:43:53.172Z,100243.15
2018-04-25T05:44:57.476Z,100248.05
2018-04-25T05:46:01.823Z,100248.45
2018-04-25T05:47:06.018Z,100246.28
2018-04-25T05:48:10.238Z,100253.48
2018-04-25T05:49:14.437Z,100256.11
2018-04-25T05:50:18.737Z,100246.52
2018-04-25T05:51:22.998Z,100249.58
2018-04-25T05:52:27.231Z,100256.98
2018-04-25T05:53:32.212Z,100257.03
2018-04-25T05:54:36.427Z,100256.66
2018-04-25T05:55:40.690Z,100266.91
2018-04-25T05:56:46.162Z,100262.15
2018-04-25T05:57:50.427Z,100269.28
2018-04-25T05:58:54.706Z,100265.00
2018-04-25T05:59:58.913Z,100272.12
2018-04-25T06:01:03.150Z,100271.57
2018-04-25T06:02:07.383Z,100282.91
2018-04-25T06:03:12.348Z,100284.73
2018-04-25T06:04:16.582Z,100283.34
2018-04-25T06:05:20.785Z,100292.88
2018-04-25T06:06:25.005Z,100294.16
2018-04-25T06:07:29.287Z,100286.82
2018-04-25T06:08:33.493Z,100297.16
2018-04-25T06:09:37.727Z,100289.14
2018-04-25T06:10:42.007Z,100294.66
2018-04-25T06:11:47.142Z,100296.14
2018-04-25T06:12:51.386Z,100298.28
2018-04-25T06:13:55.584Z,100305.70
2018-04-25T06:15:00.019Z,100309.02
2018-04-25T06:16:04.299Z,100305.42
2018-04-25T06:17:08.619Z,100303.96
2018-04-25T06:18:12.913Z,100308.00
2018-04-25T06:19:17.953Z,100309.79
2018-04-25T06:20:22.296Z,100313.05
2018-04-25T06:21:27.612Z,100311.73
2018-04-25T06:22:31.981Z,100312.22
2018-04-25T06:23:36.222Z,100313.30
2018-04-25T06:24:40.435Z,100311.47
2018-04-25T06:25:44.747Z,100310.98
2018-04-25T06:26:49.176Z,100320.41
2018-04-25T06:27:53.488Z,100313.41
2018-04-25T06:28:57.703Z,100318.19
2018-04-25T06:30:01.903Z,100318.39
2018-04-25T06:31:06.113Z,100324.99
2018-04-25T06:32:10.539Z,100330.05
2018-04-25T06:33:14.745Z,100341.02
2018-04-25T06:34:18.950Z,100333.77
2018-04-25T06:35:23.222Z,100343.02
2018-04-25T06:36:27.780Z,100343.02
2018-04-25T06:37:31.977Z,100348.02
2018-04-25T06:38:37.033Z,100355.97
2018-04-25T06:39:41.343Z,100357.36
2018-04-25T06:40:45.546Z,100368.22
2018-04-25T06:41:49.969Z,100367.83
2018-04-25T06:42:54.269Z,100364.20
2018-04-25T06:43:58.488Z,100375.28
2018-04-25T06:45:02.729Z,100373.45
2018-04-25T06:46:06.951Z,100374.69
2018-04-25T06:47:11.288Z,100379.97
2018-04-25T06:48:16.285Z,100387.91
2018-04-25T06:49:20.493Z,100391.17
2018-04-25T06:50:24.763Z,100393.05
2018-04-25T06:51:28.962Z,100384.73
2018-04-25T06:52:33.193Z,100386.30
2018-04-25T06:53:37.881Z,100396.66
2018-04-25T06:54:42.832Z,100396.17
2018-04-25T06:55:47.028Z,100395.23
2018-04-25T06:56:51.661Z,100406.63
2018-04-25T06:57:56.648Z,100413.98
2018-04-25T06:59:00.937Z,100414.60
2018-04-25T07:00:05.226Z,100413.52
2018-04-25T07:01:09.511Z,100418.22
2018-04-25T07:02:14.533Z,100424.94
2018-04-25T07:03:20.305Z,100431.70
2018-04-25T07:04:25.269Z,100431.12
2018-04-25T07:05:29.462Z,100424.19
2018-04-25T07:06:33.689Z,100438.55
2018-04-25T07:07:37.897Z,100439.31
2018-04-25T07:08:42.192Z,100446.07
2018-04-25T07:09:46.399Z,100434.28
2018-04-25T07:10:50.620Z,100447.78
2018-04-25T07:11:54.828Z,100451.72
2018-04-25T07:12:59.117Z,100452.02
2018-04-25T07:14:04.133Z,100448.48
2018-04-25T07:15:08.471Z,100448.34
2018-04-25T07:16:13.462Z,100449.92
2018-04-25T07:17:17.934Z,100447.45
2018-04-25T07:18:22.327Z,100456.03
2018-04-25T07:19:27.582Z,100451.14
2018-04-25T07:20:31.998Z,100459.50
2018-04-25T07:21:36.203Z,100464.84
2018-04-25T07:22:40.414Z,100464.69
2018-04-25T07:23:44.666Z,100461.14
2018-04-25T07:24:48.824Z,100456.78
2018-04-25T07:25:53.982Z,100464.98
2018-04-25T07:26:58.192Z,100461.54
2018-04-25T07:28:02.428Z,100459.11
2018-04-25T07:29:06.625Z,100469.45
2018-04-25T07:30:11.009Z,100470.03
2018-04-25T07:31:15.636Z,100472.58
2018-04-25T07:32:19.824Z,100474.56
2018-04-25T07:33:24.849Z,100476.77
2018-04-25T07:34:29.815Z,100470.75
2018-04-25T07:35:34.176Z,100482.57
2018-04-25T07:36:38.590Z,100483.51
2018-04-25T07:37:42.791Z,100487.84
2018-04-25T07:38:46.983Z,100489.45
2018-04-25T07:39:51.374Z,100496.29
2018-04-25T07:40:55.614Z,100488.12
2018-04-25T07:41:59.881Z,100493.41
2018-04-25T07:43:04.243Z,100494.30
2018-04-25T07:44:08.458Z,100502.88
2018-04-25T07:45:12.817Z,100502.74
2018-04-25T07:46:17.788Z,100496.09
2018-04-25T07:47:22.495Z,100504.53
2018-04-25T07:48:26.800Z,100506.25
2018-04-25T07:49:31.110Z,100513.22
2018-04-25T07:50:35.304Z,100503.81
2018-04-25T07:51:39.595Z,100508.80
2018-04-25T07:52:44.581Z,100512.68
2018-04-25T07:53:48.962Z,100513.44
2018-04-25T07:54:53.963Z,100511.34
2018-04-25T07:55:58.189Z,100519.41
2018-04-25T07:57:03.170Z,100518.98
2018-04-25T07:58:07.374Z,100520.20
2018-04-25T07:59:11.636Z,100523.42
2018-04-25T08:00:16.625Z,100520.53
2018-04-25T08:01:20.866Z,100523.47
2018-04-25T08:02:25.141Z,100524.48
2018-04-25T08:03:29.429Z,100526.97
2018-04-25T08:04:33.643Z,100525.72
2018-04-25T08:05:37.890Z,100528.99
2018-04-25T08:06:42.274Z,100535.61
2018-04-25T08:07:46.499Z,100528.66
2018-04-25T08:08:50.746Z,100525.30
2018-04-25T08:09:54.936Z,100531.27
2018-04-25T08:10:59.140Z,100542.15
2018-04-25T08:12:03.396Z,100539.86
2018-04-25T08:13:26.420Z,100539.55
2018-04-25T08:14:48.410Z,100541.84
2018-04-25T08:16:10.374Z,100542.36
2018-04-25T08:17:32.569Z,100541.09
2018-04-25T08:20:41.314Z,100555.53
2018-04-25T08:21:45.728Z,100557.81
2018-04-25T08:22:49.921Z,100567.67
2018-04-25T08:23:54.892Z,100562.11
2018-04-25T08:24:59.160Z,100576.24
2018-04-25T08:26:03.358Z,100575.75
2018-04-25T08:27:08.339Z,100572.70
2018-04-25T08:28:12.610Z,100572.55
2018-04-25T08:29:17.569Z,100569.56
2018-04-25T08:30:22.058Z,100571.95
2018-04-25T08:31:27.104Z,100571.00
2018-04-25T08:32:31.287Z,100581.00
2018-04-25T08:33:36.330Z,100586.61
2018-04-25T08:34:40.464Z,100584.40
2018-04-25T08:35:44.753Z,100589.61
2018-04-25T08:36:49.736Z,100593.44
2018-04-25T08:37:53.937Z,100588.86
2018-04-25T08:38:58.162Z,100584.15
2018-04-25T08:40:02.636Z,100600.05
2018-04-25T08:41:06.833Z,100600.50
2018-04-25T08:42:11.088Z,100608.56
2018-04-25T08:43:15.295Z,100612.38
2018-04-25T08:44:19.492Z,100615.42
2018-04-25T08:45:23.699Z,100611.14
2018-04-25T08:46:28.000Z,100614.06
2018-04-25T08:47:32.269Z,100610.72
2018-04-25T08:48:36.466Z,100620.80
2018-04-25T08:49:40.832Z,100615.81
2018-04-25T08:50:45.060Z,100617.28
2018-04-25T08:51:49.249Z,100614.73
2018-04-25T08:52:53.470Z,100620.56
2018-04-25T08:53:57.655Z,100624.39
2018-04-25T08:55:02.671Z,100619.39
2018-04-25T08:56:07.644Z,100628.80
2018-04-25T08:57:12.025Z,100627.95
2018-04-25T08:58:16.990Z,100636.45
2018-04-25T08:59:21.244Z,100632.92
2018-04-25T09:00:25.473Z,100641.17
2018-04-25T09:01:30.428Z,100642.91
2018-04-25T09:02:34.642Z,100642.95
2018-04-25T09:03:38.910Z,100642.38
2018-04-25T09:04:43.158Z,100637.52
2018-04-25T09:05:47.437Z,100636.29
2018-04-25T09:06:51.689Z,100645.89
2018-04-25T09:07:55.887Z,100643.12
2018-04-25T09:09:00.440Z,100644.68
2018-04-25T09:10:04.833Z,100648.70
2018-04-25T09:11:09.024Z,100651.34
2018-04-25T09:12:14.154Z,100653.13
2018-04-25T09:13:19.254Z,100651.28
2018-04-25T09:14:23.622Z,100654.69
2018-04-25T09:15:27.879Z,100649.91
2018-04-25T09:16:32.254Z,100659.62
2018-04-25T09:17:36.466Z,100662.92
2018-04-25T09:18:40.753Z,100659.48
2018-04-25T09:19:44.978Z,100662.86
2018-04-25T09:20:49.298Z,100661.04
2018-04-25T09:21:53.532Z,100653.30
2018-04-25T09:22:57.729Z,100664.21
2018-04-25T09:24:01.920Z,100665.66
2018-04-25T09:25:06.160Z,100667.80
2018-04-25T09:26:10.364Z,100664.28
2018-04-25T09:27:14.577Z,100667.19
2018-04-25T09:28:18.954Z,100661.09
2018-04-25T09:29:24.090Z,100666.14
2018-04-25T09:30:29.057Z,100665.28
2018-04-25T09:31:33.449Z,100667.21
2018-04-25T09:32:37.646Z,100667.86
2018-04-25T09:33:41.968Z,100667.59
2018-04-25T09:34:46.162Z,100670.16
2018-04-25T09:35:51.126Z,100671.36
2018-04-25T09:36:55.344Z,100673.50
2018-04-25T09:37:59.667Z,100676.30
2018-04-25T09:39:04.051Z,100677.95
2018-04-25T09:40:08.363Z,100678.94
2018-04-25T09:41:12.558Z,100680.73
2018-04-25T09:42:16.792Z,100684.08
2018-04-25T09:43:21.031Z,100679.78
2018-04-25T09:44:25.233Z,100681.13
2018-04-25T09:45:29.513Z,100684.78
2018-04-25T09:46:33.935Z,100679.84
2018-04-25T09:47:38.230Z,100678.72
2018-04-25T09:48:43.179Z,100688.70
2018-04-25T09:49:47.591Z,100685.83
2018-04-25T09:50:51.820Z,100685.83
2018-04-25T09:51:56.257Z,100682.58
2018-04-25T09:53:00.484Z,100688.41
2018-04-25T09:54:06.194Z,100697.38
2018-04-25T09:55:10.402Z,100704.22
2018-04-25T09:56:14.585Z,100701.78
2018-04-25T09:57:18.796Z,100701.52
2018-04-25T09:58:22.997Z,100703.89
2018-04-25T09:59:28.147Z,100702.37
2018-04-25T10:00:37.989Z,100710.09
2018-04-25T10:01:42.232Z,100706.49
2018-04-25T10:03:01.310Z,100710.79
2018-04-25T10:04:05.574Z,100707.20
2018-04-25T10:05:09.754Z,100712.17
2018-04-25T10:06:14.705Z,100714.22
2018-04-25T10:07:19.039Z,100707.16
2018-04-25T10:08:23.243Z,100714.70
2018-04-25T10:09:27.460Z,100715.61
2018-04-25T10:10:31.741Z,100721.61
2018-04-25T10:11:36.706Z,100722.88
2018-04-25T10:12:40.924Z,100733.72
2018-04-25T10:13:45.315Z,100736.91
2018-04-25T10:14:49.519Z,100732.20
2018-04-25T10:15:53.878Z,100726.62
2018-04-25T10:16:58.224Z,100729.23
2018-04-25T10:18:03.211Z,100718.09
2018-04-25T10:19:07.598Z,100720.42
2018-04-25T10:20:11.797Z,100728.85
2018-04-25T10:21:16.524Z,100735.88
2018-04-25T10:22:20.826Z,100734.42
2018-04-25T10:23:25.781Z,100726.68
2018-04-25T10:24:29.978Z,100731.56
2018-04-25T10:25:34.168Z,100737.63
2018-04-25T10:26:39.149Z,100741.48
2018-04-25T10:27:43.640Z,100738.12
2018-04-25T10:28:48.064Z,100741.42
2018-04-25T10:29:52.266Z,100741.48
2018-04-25T10:30:56.467Z,100738.90
2018-04-25T10:32:00.730Z,100737.34
2018-04-25T10:33:05.095Z,100743.08
2018-04-25T10:34:09.359Z,100743.27
2018-04-25T10:35:14.659Z,100750.50
2018-04-25T10:36:18.946Z,100752.91
2018-04-25T10:37:23.917Z,100745.13
2018-04-25T10:38:28.112Z,100745.69
2018-04-25T10:39:32.374Z,100753.42
2018-04-25T10:40:38.183Z,100747.50
2018-04-25T10:41:42.407Z,100750.75
2018-04-25T10:42:46.765Z,100743.83
2018-04-25T10:43:51.731Z,100738.70
2018-04-25T10:44:55.955Z,100740.79
2018-04-25T10:46:00.145Z,100740.07
2018-04-25T10:47:04.354Z,100750.58
2018-04-25T10:48:08.606Z,100754.00
2018-04-25T10:49:12.863Z,100753.13
2018-04-25T10:50:17.052Z,100753.48
2018-04-25T10:51:22.020Z,100756.19
2018-04-25T10:52:26.269Z,100755.70
2018-04-25T10:53:30.723Z,100755.54
2018-04-25T10:54:35.692Z,100745.58
2018-04-25T10:55:39.898Z,100757.09
2018-04-25T10:56:44.187Z,100750.59
2018-04-25T10:57:48.390Z,100756.13
2018-04-25T10:58:52.808Z,100756.22
2018-04-25T10:59:57.842Z,100756.42
2018-04-25T11:01:02.054Z,100755.58
2018-04-25T11:02:06.241Z,100751.86
2018-04-25T11:03:11.221Z,100753.28
2018-04-25T11:04:16.032Z,100758.08
2018-04-25T11:05:20.226Z,100754.06
2018-04-25T11:06:24.429Z,100751.48
2018-04-25T11:07:28.675Z,100754.83
2018-04-25T11:08:32.950Z,100758.22
2018-04-25T11:09:37.381Z,100759.16
2018-04-25T11:10:41.586Z,100755.08
2018-04-25T11:11:45.795Z,100752.41
2018-04-25T11:12:49.989Z,100760.00
2018-04-25T11:13:55.126Z,100752.06
2018-04-25T11:14:59.584Z,100759.64
2018-04-25T11:16:03.800Z,100756.22
2018-04-25T11:17:08.008Z,100765.95
2018-04-25T11:18:12.218Z,100757.59
2018-04-25T11:19:16.433Z,100757.41
2018-04-25T11:20:21.137Z,100761.92
2018-04-25T11:21:25.366Z,100757.86
2018-04-25T11:22:29.552Z,100752.55
2018-04-25T11:23:33.753Z,100754.69
2018-04-25T11:24:37.958Z,100756.34
2018-04-25T11:25:42.296Z,100754.24
2018-04-25T11:26:46.549Z,100754.26
2018-04-25T11:27:50.903Z,100755.27
2018-04-25T11:28:55.092Z,100759.86
2018-04-25T11:30:00.045Z,100764.59
2018-04-25T11:31:04.318Z,100759.25
2018-04-25T11:32:09.299Z,100761.43
2018-04-25T11:33:13.559Z,100767.47
2018-04-25T11:34:17.767Z,100761.13
2018-04-25T11:35:21.956Z,100767.60
2018-04-25T11:36:26.417Z,100763.59
2018-04-25T11:37:31.372Z,100770.75
2018-04-25T11:38:35.593Z,100768.39
2018-04-25T11:39:39.883Z,100773.84
2018-04-25T11:40:44.093Z,100774.70
2018-04-25T11:41:48.335Z,100774.92
2018-04-25T11:42:52.702Z,100774.56
2018-04-25T11:43:57.712Z,100772.63
2018-04-25T11:45:02.750Z,100777.70
2018-04-25T11:46:07.716Z,100774.45
2018-04-25T11:47:12.028Z,100773.89
2018-04-25T11:48:16.235Z,100774.02
2018-04-25T11:49:20.958Z,100771.52
2018-04-25T11:50:25.159Z,100776.06
2018-04-25T11:51:29.378Z,100771.39
2018-04-25T11:52:33.583Z,100771.02
2018-04-25T11:53:37.778Z,100771.03
2018-04-25T11:54:42.225Z,100775.60
2018-04-25T11:55:46.416Z,100771.55
2018-04-25T11:56:50.723Z,100778.12
2018-04-25T11:57:55.676Z,100774.09
2018-04-25T11:58:59.885Z,100772.00
2018-04-25T12:00:04.247Z,100777.50
2018-04-25T12:01:08.499Z,100786.06
2018-04-25T12:02:12.706Z,100774.55
2018-04-25T12:03:17.006Z,100788.34
2018-04-25T12:04:22.733Z,100785.52
2018-04-25T12:05:27.721Z,100796.47
2018-04-25T12:06:31.928Z,100793.50
2018-04-25T12:07:36.174Z,100791.55
2018-04-25T12:08:40.386Z,100787.69
2018-04-25T12:09:44.589Z,100788.31
2018-04-25T12:10:48.789Z,100795.09
2018-04-25T12:11:53.003Z,100790.05
2018-04-25T12:12:57.249Z,100793.91
2018-04-25T12:14:02.209Z,100798.77
2018-04-25T12:15:06.406Z,100801.87
2018-04-25T12:16:10.617Z,100798.43
2018-04-25T12:17:14.852Z,100797.11
2018-04-25T12:18:19.148Z,100798.45
2018-04-25T12:19:23.521Z,100799.66
2018-04-25T12:20:29.221Z,100799.81
2018-04-25T12:21:33.409Z,100796.59
2018-04-25T12:22:37.660Z,100800.85
2018-04-25T12:23:41.858Z,100800.78
2018-04-25T12:24:46.131Z,100808.14
2018-04-25T12:25:50.333Z,100800.59
2018-04-25T12:26:54.659Z,100806.28
2018-04-25T12:27:58.889Z,100805.34
2018-04-25T12:29:03.104Z,100813.92